sensor_id;sensor_type;location;lat;lon;timestamp;temperature;humidity
21508;DHT22;10915;54.352;9.074;2022-08-19T20:06:52;19.90;99.90
21508;DHT22;10915;54.352;9.074;2022-08-19T20:09:18;19.90;99.90
21508;DHT22;10915;54.352;9.074;2022-08-19T20:11:48;19.90;99.90
21508;DHT22;10915;54.352;9.074;2022-08-19T20:14:18;19.90;99.90
21508;DHT22;10915;54.352;9.074;2022-08-19T20:16:45;19.80;99.90
21508;DHT22;10915;54.352;9.074;2022-08-19T20:19:17;19.90;99.90
21508;DHT22;10915;54.352;9.074;2022-08-19T20:21:45;19.80;99.90
21508;DHT22;10915;54.352;9.074;2022-08-19T20:24:13;19.80;99.90
21508;DHT22;10915;54.352;9.074;2022-08-19T20:26:40;19.80;99.90
21508;DHT22;10915;54.352;9.074;2022-08-19T20:29:07;19.70;99.90
21508;DHT22;10915;54.352;9.074;2022-08-19T20:31:32;19.70;99.90
21508;DHT22;10915;54.352;9.074;2022-08-19T20:33:58;19.70;99.90
21508;DHT22;10915;54.352;9.074;2022-08-19T20:36:24;19.70;99.90
21508;DHT22;10915;54.352;9.074;2022-08-19T20:38:51;19.60;99.90
21508;DHT22;10915;54.352;9.074;2022-08-19T20:41:17;19.50;99.90
21508;DHT22;10915;54.352;9.074;2022-08-19T20:43:44;19.50;99.90
21508;DHT22;10915;54.352;9.074;2022-08-19T20:46:10;19.50;99.90
21508;DHT22;10915;54.352;9.074;2022-08-19T20:48:35;19.50;99.90
21508;DHT22;10915;54.352;9.074;2022-08-19T20:51:04;19.50;99.90
21508;DHT22;10915;54.352;9.074;2022-08-19T20:53:30;19.50;99.90
21508;DHT22;10915;54.352;9.074;2022-08-19T20:55:56;19.50;99.90
21508;DHT22;10915;54.352;9.074;2022-08-19T20:58:24;19.50;99.90
21508;DHT22;10915;54.352;9.074;2022-08-19T21:00:52;19.50;99.90
21508;DHT22;10915;54.352;9.074;2022-08-19T21:03:21;19.50;99.90
21508;DHT22;10915;54.352;9.074;2022-08-19T21:05:47;19.50;99.90
21508;DHT22;10915;54.352;9.074;2022-08-19T21:08:14;19.50;99.90
21508;DHT22;10915;54.352;9.074;2022-08-19T21:10:45;19.40;99.90
21508;DHT22;10915;54.352;9.074;2022-08-19T21:13:11;19.40;99.90
21508;DHT22;10915;54.352;9.074;2022-08-19T21:15:38;19.40;99.90
21508;DHT22;10915;54.352;9.074;2022-08-19T21:18:06;19.40;99.90
21508;DHT22;10915;54.352;9.074;2022-08-19T21:20:32;19.40;99.90
21508;DHT22;10915;54.352;9.074;2022-08-19T21:23:02;19.40;99.90
21508;DHT22;10915;54.352;9.074;2022-08-19T21:25:28;19.50;99.90
21508;DHT22;10915;54.352;9.074;2022-08-19T21:27:54;19.40;99.90
21508;DHT22;10915;54.352;9.074;2022-08-19T21:30:20;19.40;99.90
21508;DHT22;10915;54.352;9.074;2022-08-19T21:32:46;19.40;99.90
21508;DHT22;10915;54.352;9.074;2022-08-19T21:35:12;19.40;99.90
21508;DHT22;10915;54.352;9.074;2022-08-19T21:37:38;19.40;99.90
21508;DHT22;10915;54.352;9.074;2022-08-19T21:40:05;19.40;99.90
21508;DHT22;10915;54.352;9.074;2022-08-19T21:42:31;19.40;99.90
21508;DHT22;10915;54.352;9.074;2022-08-19T21:44:57;19.40;99.90
21508;DHT22;10915;54.352;9.074;2022-08-19T21:47:22;19.40;99.90
21508;DHT22;10915;54.352;9.074;2022-08-19T21:49:48;19.50;99.90
21508;DHT22;10915;54.352;9.074;2022-08-19T21:52:22;19.50;99.90
21508;DHT22;10915;54.352;9.074;2022-08-19T21:54:48;19.40;99.90
21508;DHT22;10915;54.352;9.074;2022-08-19T21:57:14;19.50;99.90
21508;DHT22;10915;54.352;9.074;2022-08-19T21:59:40;19.40;99.90
21508;DHT22;10915;54.352;9.074;2022-08-19T22:02:06;19.40;99.90
21508;DHT22;10915;54.352;9.074;2022-08-19T22:04:31;19.40;99.90
21508;DHT22;10915;54.352;9.074;2022-08-19T22:06:57;19.40;99.90
21508;DHT22;10915;54.352;9.074;2022-08-19T22:09:22;19.40;99.90
21508;DHT22;10915;54.352;9.074;2022-08-19T22:11:48;19.40;99.90
21508;DHT22;10915;54.352;9.074;2022-08-19T22:14:14;19.40;99.90
21508;DHT22;10915;54.352;9.074;2022-08-19T22:16:39;19.30;99.90
21508;DHT22;10915;54.352;9.074;2022-08-19T22:19:05;19.30;99.90
21508;DHT22;10915;54.352;9.074;2022-08-19T22:21:32;19.30;99.90
21508;DHT22;10915;54.352;9.074;2022-08-19T22:23:57;19.30;99.90
21508;DHT22;10915;54.352;9.074;2022-08-19T22:26:23;19.30;99.90
21508;DHT22;10915;54.352;9.074;2022-08-19T22:28:49;19.30;99.90
21508;DHT22;10915;54.352;9.074;2022-08-19T22:31:14;19.30;99.90
21508;DHT22;10915;54.352;9.074;2022-08-19T22:33:40;19.30;99.90
21508;DHT22;10915;54.352;9.074;2022-08-19T22:36:06;19.30;99.90
21508;DHT22;10915;54.352;9.074;2022-08-19T22:38:33;19.30;99.90
21508;DHT22;10915;54.352;9.074;2022-08-19T22:40:59;19.30;99.90
21508;DHT22;10915;54.352;9.074;2022-08-19T22:43:28;19.20;99.90
21508;DHT22;10915;54.352;9.074;2022-08-19T22:45:59;19.20;99.90
21508;DHT22;10915;54.352;9.074;2022-08-19T22:48:27;19.20;99.90
21508;DHT22;10915;54.352;9.074;2022-08-19T22:50:54;19.20;99.90
21508;DHT22;10915;54.352;9.074;2022-08-19T22:53:41;19.20;99.90
21508;DHT22;10915;54.352;9.074;2022-08-19T22:56:09;19.20;99.90
21508;DHT22;10915;54.352;9.074;2022-08-19T22:58:35;19.30;99.90
21508;DHT22;10915;54.352;9.074;2022-08-19T23:01:01;19.30;99.90
21508;DHT22;10915;54.352;9.074;2022-08-19T23:03:27;19.30;99.90
21508;DHT22;10915;54.352;9.074;2022-08-19T23:05:53;19.30;99.90
21508;DHT22;10915;54.352;9.074;2022-08-19T23:08:20;19.30;99.90
21508;DHT22;10915;54.352;9.074;2022-08-19T23:10:46;19.30;99.90
21508;DHT22;10915;54.352;9.074;2022-08-19T23:13:12;19.30;99.90
21508;DHT22;10915;54.352;9.074;2022-08-19T23:15:42;19.30;99.90
21508;DHT22;10915;54.352;9.074;2022-08-19T23:18:09;19.20;99.90
21508;DHT22;10915;54.352;9.074;2022-08-19T23:20:36;19.20;99.90
21508;DHT22;10915;54.352;9.074;2022-08-19T23:23:05;19.20;99.90
21508;DHT22;10915;54.352;9.074;2022-08-19T23:25:33;19.20;99.90
21508;DHT22;10915;54.352;9.074;2022-08-19T23:28:00;19.20;99.90
21508;DHT22;10915;54.352;9.074;2022-08-19T23:30:45;19.10;99.90
21508;DHT22;10915;54.352;9.074;2022-08-19T23:35:54;19.10;99.90
21508;DHT22;10915;54.352;9.074;2022-08-19T23:38:21;19.10;99.90
21508;DHT22;10915;54.352;9.074;2022-08-19T23:40:53;19.10;99.90
21508;DHT22;10915;54.352;9.074;2022-08-19T23:43:19;19.10;99.90
21508;DHT22;10915;54.352;9.074;2022-08-19T23:45:45;19.10;99.90
21508;DHT22;10915;54.352;9.074;2022-08-19T23:48:11;19.10;99.90
21508;DHT22;10915;54.352;9.074;2022-08-19T23:50:39;19.10;99.90
21508;DHT22;10915;54.352;9.074;2022-08-19T23:53:06;19.10;99.90
21508;DHT22;10915;54.352;9.074;2022-08-19T23:55:34;19.10;99.90
21508;DHT22;10915;54.352;9.074;2022-08-19T23:58:01;19.10;99.90
